Time;durP1;ratioP1;P1;durP2;ratioP2;P2;SDS_P1;SDS_P2;PMS_P1;PMS_P2;Temp;Humidity;BMP_temperature;BMP_pressure;BME280_temperature;BME280_humidity;BME280_pressure;Samples;Min_cycle;Max_cycle;Signal;HPM_P1;HPM_P2
2021/11/16 00:00:22;;;;;;;123.97;74.03;;;6.00;99.90;;;;;;5038854;28;20528;-90
2021/11/16 00:02:48;;;;;;;112.85;73.03;;;6.00;99.90;;;;;;5039124;28;20217;-91
2021/11/16 00:05:14;;;;;;;119.60;72.22;;;6.00;99.90;;;;;;5038872;28;20218;-91
2021/11/16 00:07:40;;;;;;;132.53;75.80;;;6.00;99.90;;;;;;5038610;28;20209;-90
2021/11/16 00:10:07;;;;;;;120.67;74.17;;;6.00;99.90;;;;;;5038664;28;20182;-89
2021/11/16 00:12:33;;;;;;;120.93;73.28;;;6.10;99.90;;;;;;5038897;28;20508;-92
2021/11/16 00:14:58;;;;;;;121.40;70.97;;;6.10;99.90;;;;;;5070878;28;20204;-92
2021/11/16 00:17:24;;;;;;;123.63;75.17;;;6.00;99.90;;;;;;5036890;28;20273;-90
2021/11/16 00:19:51;;;;;;;126.37;72.17;;;6.00;99.90;;;;;;5035532;28;20374;-91
2021/11/16 00:22:18;;;;;;;121.70;75.05;;;6.00;99.90;;;;;;5035303;28;20457;-92
2021/11/16 00:27:29;;;;;;;126.40;75.20;;;6.00;99.90;;;;;;5036849;28;20668;-92
2021/11/16 00:29:54;;;;;;;119.17;70.33;;;6.00;99.90;;;;;;5036041;28;20219;-91
2021/11/16 00:32:20;;;;;;;117.70;72.70;;;6.00;99.90;;;;;;5035156;28;20444;-89
2021/11/16 00:34:46;;;;;;;128.10;77.53;;;6.00;99.90;;;;;;5035508;28;20182;-89
2021/11/16 00:37:11;;;;;;;110.13;69.53;;;6.00;99.90;;;;;;5039491;28;20209;-89
2021/11/16 00:39:37;;;;;;;121.40;73.37;;;6.00;99.90;;;;;;5041751;28;20217;-89
2021/11/16 00:42:03;;;;;;;121.50;74.67;;;5.90;99.90;;;;;;5045835;28;20196;-91
2021/11/16 00:44:29;;;;;;;121.68;70.90;;;5.90;99.90;;;;;;5042327;28;20234;-89
2021/11/16 00:46:54;;;;;;;110.90;71.07;;;5.90;99.90;;;;;;5034277;28;20208;-92
2021/11/16 00:49:20;;;;;;;120.93;70.07;;;5.80;99.90;;;;;;5035690;28;20185;-90
2021/11/16 00:51:47;;;;;;;111.33;66.40;;;5.80;99.90;;;;;;5034490;28;20218;-92
2021/11/16 00:54:13;;;;;;;112.05;66.13;;;5.70;99.90;;;;;;5034275;28;20174;-91
2021/11/16 00:56:39;;;;;;;105.83;67.37;;;5.70;99.90;;;;;;5034992;28;20206;-89
2021/11/16 00:59:04;;;;;;;107.90;68.17;;;5.70;99.90;;;;;;5035602;28;20859;-92
2021/11/16 01:01:30;;;;;;;115.43;68.50;;;5.60;99.90;;;;;;5034314;28;20202;-90
2021/11/16 01:03:55;;;;;;;105.80;65.23;;;5.60;99.90;;;;;;5035023;28;20210;-89
2021/11/16 01:06:21;;;;;;;105.83;64.20;;;5.50;99.90;;;;;;5034637;28;20213;-89
2021/11/16 01:08:47;;;;;;;117.17;69.67;;;5.50;99.90;;;;;;5035498;28;20171;-90
2021/11/16 01:11:13;;;;;;;102.70;63.80;;;5.40;99.90;;;;;;5034469;28;20521;-91
2021/11/16 01:13:38;;;;;;;107.10;67.73;;;5.40;99.90;;;;;;5034154;28;20648;-90
2021/11/16 01:16:05;;;;;;;101.17;62.33;;;5.40;99.90;;;;;;5034706;28;20686;-92
2021/11/16 01:18:31;;;;;;;101.68;63.10;;;5.40;99.90;;;;;;5046130;28;20273;-92
2021/11/16 01:20:57;;;;;;;103.95;62.90;;;5.40;99.90;;;;;;5033789;28;20194;-92
2021/11/16 01:23:23;;;;;;;100.30;60.90;;;5.40;99.90;;;;;;5034201;28;20246;-90
2021/11/16 01:25:49;;;;;;;107.18;64.32;;;5.30;99.90;;;;;;5033852;28;20412;-89
2021/11/16 01:28:21;;;;;;;107.60;65.30;;;5.30;99.90;;;;;;5033833;28;20221;-91
2021/11/16 01:30:50;;;;;;;107.85;62.20;;;5.40;99.90;;;;;;5035207;28;20205;-90
2021/11/16 01:33:20;;;;;;;99.68;62.85;;;5.40;99.90;;;;;;5034593;28;20682;-90
2021/11/16 01:35:47;;;;;;;111.45;66.10;;;5.30;99.90;;;;;;5033983;28;20640;-90
2021/11/16 01:38:16;;;;;;;99.25;63.05;;;5.30;99.90;;;;;;5035089;28;20197;-89
2021/11/16 01:40:43;;;;;;;105.55;63.03;;;5.40;99.90;;;;;;5034722;28;20183;-91
2021/11/16 01:43:10;;;;;;;104.88;63.10;;;5.40;99.90;;;;;;5033632;28;20277;-90
2021/11/16 01:45:38;;;;;;;113.57;65.07;;;5.40;99.90;;;;;;5034811;28;20229;-91
2021/11/16 01:48:05;;;;;;;102.18;58.97;;;5.40;99.90;;;;;;5033677;28;20284;-92
2021/11/16 01:50:31;;;;;;;101.38;61.83;;;5.50;99.90;;;;;;5033649;28;20170;-89
2021/11/16 01:52:57;;;;;;;107.25;65.00;;;5.50;99.90;;;;;;5033849;28;20207;-92
2021/11/16 01:55:24;;;;;;;106.15;65.00;;;5.50;99.90;;;;;;5040286;28;20217;-91
2021/11/16 01:57:51;;;;;;;114.25;64.38;;;5.60;99.90;;;;;;5034736;28;20255;-92
2021/11/16 02:00:22;;;;;;;114.35;63.50;;;5.60;99.90;;;;;;5033986;28;20265;-90
2021/11/16 02:02:48;;;;;;;109.35;60.85;;;5.60;99.90;;;;;;5045786;28;20202;-89
2021/11/16 02:05:13;;;;;;;95.93;61.47;;;5.70;99.90;;;;;;5034541;28;20202;-90
2021/11/16 02:07:47;;;;;;;108.17;61.40;;;5.70;99.90;;;;;;5034956;28;20210;-92
2021/11/16 02:10:14;;;;;;;108.32;64.75;;;5.70;99.90;;;;;;5034651;28;20374;-92
2021/11/16 02:12:40;;;;;;;100.45;59.63;;;5.70;99.90;;;;;;5035109;28;20210;-89
2021/11/16 02:15:08;;;;;;;102.80;61.75;;;5.70;99.90;;;;;;5034528;28;20174;-92
2021/11/16 02:17:34;;;;;;;97.10;62.33;;;5.70;99.90;;;;;;5033454;28;20269;-90
2021/11/16 02:20:01;;;;;;;100.57;62.45;;;5.80;99.90;;;;;;5037448;28;20170;-90
2021/11/16 02:22:26;;;;;;;106.05;63.45;;;5.80;99.90;;;;;;5037709;28;20627;-92
2021/11/16 02:24:52;;;;;;;107.90;65.27;;;5.80;99.90;;;;;;5038432;28;20205;-91
2021/11/16 02:27:18;;;;;;;101.78;62.22;;;5.80;99.90;;;;;;5039304;28;20698;-90
2021/11/16 02:29:44;;;;;;;111.53;62.97;;;5.80;99.90;;;;;;5054032;28;20175;-89
2021/11/16 02:32:10;;;;;;;101.53;64.33;;;5.80;99.90;;;;;;5038911;28;20336;-92
2021/11/16 02:34:36;;;;;;;101.80;61.57;;;5.90;99.90;;;;;;5037180;28;20526;-90
2021/11/16 02:37:01;;;;;;;102.83;63.80;;;5.90;99.90;;;;;;5037328;28;20211;-91
2021/11/16 02:39:27;;;;;;;109.73;61.60;;;5.90;99.90;;;;;;5038521;28;20171;-88
2021/11/16 02:41:53;;;;;;;106.70;65.13;;;5.90;99.90;;;;;;5038276;28;20207;-92
2021/11/16 02:44:21;;;;;;;103.95;61.30;;;5.90;99.90;;;;;;5037056;28;20419;-92
2021/11/16 02:46:48;;;;;;;109.32;63.85;;;5.90;99.90;;;;;;5038511;28;20202;-92
2021/11/16 02:49:15;;;;;;;106.95;61.35;;;5.90;99.90;;;;;;5037081;28;20178;-89
2021/11/16 02:51:41;;;;;;;98.75;61.00;;;5.90;99.90;;;;;;5047697;28;20226;-89
2021/11/16 02:54:18;;;;;;;99.90;59.20;;;5.80;99.90;;;;;;5037959;28;20187;-92
2021/11/16 02:56:45;;;;;;;106.60;66.55;;;5.80;99.90;;;;;;5036766;28;20451;-90
2021/11/16 02:59:11;;;;;;;104.70;61.80;;;5.70;99.90;;;;;;5036902;28;20244;-92
2021/11/16 03:01:37;;;;;;;103.13;61.67;;;5.70;99.90;;;;;;5036382;28;20202;-89
2021/11/16 03:04:03;;;;;;;104.93;60.97;;;5.60;99.90;;;;;;5036537;28;20502;-89
2021/11/16 03:06:29;;;;;;;98.45;61.10;;;5.60;99.90;;;;;;5036671;28;20210;-92
2021/11/16 03:08:55;;;;;;;100.93;61.10;;;5.60;99.90;;;;;;5036494;28;20179;-92
2021/11/16 03:11:21;;;;;;;98.97;56.53;;;5.50;99.90;;;;;;5037610;28;20226;-89
2021/11/16 03:13:46;;;;;;;101.03;58.50;;;5.50;99.90;;;;;;5036502;28;20273;-92
2021/11/16 03:16:15;;;;;;;102.73;59.77;;;5.50;99.90;;;;;;5037334;28;20611;-89
2021/11/16 03:18:53;;;;;;;90.10;58.28;;;5.40;99.90;;;;;;5040990;28;20178;-90
2021/11/16 03:21:22;;;;;;;97.93;56.65;;;5.40;99.90;;;;;;5048843;28;20269;-91
2021/11/16 03:23:50;;;;;;;91.13;56.60;;;5.30;99.90;;;;;;5043046;28;20233;-90
2021/11/16 03:26:19;;;;;;;90.57;57.30;;;5.30;99.90;;;;;;5057153;28;20208;-92
2021/11/16 03:28:48;;;;;;;90.22;58.38;;;5.30;99.90;;;;;;5039339;28;20189;-92
2021/11/16 03:31:21;;;;;;;94.78;57.65;;;5.30;99.90;;;;;;5038458;28;20291;-93
2021/11/16 03:33:49;;;;;;;100.03;57.17;;;5.20;99.90;;;;;;5039524;28;20189;-90
2021/11/16 03:36:16;;;;;;;101.15;57.05;;;5.20;99.90;;;;;;5057137;28;20205;-92
2021/11/16 03:38:43;;;;;;;91.90;57.22;;;5.10;99.90;;;;;;5057203;28;20181;-90
2021/11/16 03:41:10;;;;;;;97.63;59.53;;;5.10;99.90;;;;;;5056966;28;20174;-89
2021/11/16 03:43:36;;;;;;;99.32;59.35;;;5.10;99.90;;;;;;5039288;28;20212;-90
2021/11/16 03:46:02;;;;;;;87.63;54.88;;;5.10;99.90;;;;;;5056889;28;20178;-90
2021/11/16 03:48:29;;;;;;;97.25;57.10;;;5.00;99.90;;;;;;5039430;28;20182;-92
2021/11/16 03:50:55;;;;;;;101.05;57.90;;;5.00;99.90;;;;;;5056805;28;20266;-90
2021/11/16 03:53:21;;;;;;;99.20;57.75;;;5.00;99.90;;;;;;5056814;28;20170;-92
2021/11/16 03:55:48;;;;;;;96.55;58.28;;;5.00;99.90;;;;;;5039303;28;20174;-91
2021/11/16 03:58:17;;;;;;;85.13;54.60;;;4.90;99.90;;;;;;5045243;28;20196;-91
2021/11/16 04:00:47;;;;;;;90.60;53.92;;;4.90;99.90;;;;;;5038936;28;20185;-90
2021/11/16 04:03:13;;;;;;;98.38;58.38;;;4.90;99.90;;;;;;5056415;28;20212;-91
2021/11/16 04:05:40;;;;;;;94.70;56.03;;;4.90;99.90;;;;;;5038725;28;20184;-92
2021/11/16 04:08:06;;;;;;;95.60;56.95;;;4.90;99.90;;;;;;5038844;28;20222;-92
2021/11/16 04:10:34;;;;;;;90.93;56.75;;;4.90;99.90;;;;;;5039251;28;20764;-90
2021/11/16 04:13:00;;;;;;;95.15;56.40;;;4.90;99.90;;;;;;5039901;28;20210;-89
2021/11/16 04:15:26;;;;;;;97.65;58.03;;;4.90;99.90;;;;;;5038791;28;20273;-89
2021/11/16 04:17:54;;;;;;;92.95;58.30;;;4.90;99.90;;;;;;5035345;28;20321;-92
2021/11/16 04:20:23;;;;;;;109.10;60.78;;;5.00;99.90;;;;;;5037131;28;20255;-88
2021/11/16 04:22:50;;;;;;;106.25;58.47;;;5.00;99.90;;;;;;5038021;28;20728;-92
2021/11/16 04:25:17;;;;;;;104.00;59.40;;;5.10;99.90;;;;;;5035128;28;20206;-89
2021/11/16 04:27:44;;;;;;;109.90;63.88;;;5.20;99.90;;;;;;5036544;28;20198;-91
2021/11/16 04:30:11;;;;;;;97.40;60.30;;;5.30;99.90;;;;;;5036171;28;20182;-91
2021/11/16 04:32:37;;;;;;;102.53;59.00;;;5.30;99.90;;;;;;5035126;28;20209;-91
2021/11/16 04:35:05;;;;;;;100.63;59.50;;;5.40;99.90;;;;;;5034957;28;20174;-90
2021/11/16 04:37:32;;;;;;;101.38;60.08;;;5.50;99.90;;;;;;5037710;28;20768;-90
2021/11/16 04:39:57;;;;;;;103.32;60.47;;;5.50;99.90;;;;;;5049872;28;20701;-90
2021/11/16 04:42:24;;;;;;;100.73;59.73;;;5.60;99.90;;;;;;5048036;28;20206;-90
2021/11/16 04:44:50;;;;;;;105.30;57.47;;;5.60;99.90;;;;;;5034694;28;20522;-89
2021/11/16 04:47:22;;;;;;;97.80;55.72;;;5.70;99.90;;;;;;5034815;28;20241;-89
2021/11/16 04:49:56;;;;;;;100.93;58.38;;;5.70;99.90;;;;;;5035470;28;20214;-89
2021/11/16 04:52:32;;;;;;;83.65;53.33;;;5.80;99.90;;;;;;5021882;28;20258;-90
2021/11/16 04:55:19;;;;;;;86.65;53.30;;;5.80;99.90;;;;;;5014892;28;20191;-92
2021/11/16 05:02:53;;;;;;;89.63;55.13;;;5.90;99.90;;;;;;5016556;28;20217;-92
2021/11/16 05:05:21;;;;;;;92.57;56.00;;;5.90;99.90;;;;;;5015133;28;20222;-92
2021/11/16 05:08:00;;;;;;;103.80;57.25;;;5.90;99.90;;;;;;5021323;28;20453;-92
2021/11/16 05:10:26;;;;;;;103.25;59.60;;;6.00;99.90;;;;;;5014628;28;20186;-92
2021/11/16 05:12:54;;;;;;;90.38;55.63;;;6.00;99.90;;;;;;5014585;28;20203;-92
2021/11/16 05:15:21;;;;;;;86.78;52.80;;;6.00;99.90;;;;;;5015827;28;20174;-90
2021/11/16 05:17:48;;;;;;;85.50;52.03;;;6.10;99.90;;;;;;5017413;28;20299;-90
2021/11/16 05:20:14;;;;;;;95.90;55.42;;;6.10;99.90;;;;;;5017744;28;20220;-92
2021/11/16 05:22:42;;;;;;;95.93;54.70;;;6.10;99.90;;;;;;5017680;28;20794;-92
2021/11/16 05:25:09;;;;;;;88.18;53.20;;;6.20;99.90;;;;;;5017609;28;20218;-92
2021/11/16 05:27:34;;;;;;;93.20;53.50;;;6.20;99.90;;;;;;5035026;28;20195;-92
2021/11/16 05:30:03;;;;;;;88.00;54.10;;;6.30;99.90;;;;;;5017853;28;20190;-92
2021/11/16 05:32:29;;;;;;;90.82;56.15;;;6.30;99.90;;;;;;5017844;28;20449;-92
2021/11/16 05:34:55;;;;;;;87.60;55.27;;;6.30;99.90;;;;;;5020171;28;20178;-90
2021/11/16 05:37:21;;;;;;;97.60;58.13;;;6.40;99.90;;;;;;5037764;28;20178;-92
2021/11/16 05:39:46;;;;;;;94.93;56.07;;;6.40;99.90;;;;;;5033315;28;20189;-90
2021/11/16 05:42:12;;;;;;;93.23;55.40;;;6.40;99.90;;;;;;5017850;28;20190;-90
2021/11/16 05:44:38;;;;;;;95.23;54.23;;;6.40;99.90;;;;;;5017556;28;20586;-92
2021/11/16 05:47:05;;;;;;;88.38;56.35;;;6.40;99.90;;;;;;5034109;28;20267;-92
2021/11/16 05:49:32;;;;;;;96.53;56.53;;;6.40;99.90;;;;;;5016738;28;20325;-89
2021/11/16 05:52:02;;;;;;;93.88;55.08;;;6.40;99.90;;;;;;5016916;28;20270;-90
2021/11/16 05:54:32;;;;;;;101.13;57.20;;;6.30;99.90;;;;;;5026065;28;20187;-92
2021/11/16 05:56:58;;;;;;;104.20;59.72;;;6.30;99.90;;;;;;5012242;28;20222;-92
2021/11/16 05:59:27;;;;;;;110.15;62.63;;;6.30;99.90;;;;;;5020178;28;20198;-90
2021/11/16 06:01:52;;;;;;;96.53;59.15;;;6.20;99.90;;;;;;5009066;28;20639;-90
2021/11/16 06:04:18;;;;;;;112.43;62.37;;;6.20;99.90;;;;;;5005984;28;20215;-90
2021/11/16 06:06:44;;;;;;;108.10;64.33;;;6.10;99.90;;;;;;5017832;28;20807;-91
2021/11/16 06:09:11;;;;;;;114.33;63.70;;;6.10;99.90;;;;;;5026587;28;20190;-88
2021/11/16 06:11:37;;;;;;;107.43;64.18;;;6.10;99.90;;;;;;5023410;28;20201;-92
2021/11/16 06:14:03;;;;;;;285.53;158.77;;;6.00;99.90;;;;;;5002943;28;20284;-89
2021/11/16 06:16:29;;;;;;;108.20;63.77;;;6.00;99.90;;;;;;5017629;28;20425;-92
2021/11/16 06:19:00;;;;;;;107.72;61.10;;;6.00;99.90;;;;;;5035411;28;20193;-92
2021/11/16 06:21:27;;;;;;;107.90;64.65;;;6.00;99.90;;;;;;5036123;28;20627;-90
2021/11/16 06:23:53;;;;;;;118.97;67.70;;;6.00;99.90;;;;;;5053441;28;20220;-89
2021/11/16 06:26:20;;;;;;;125.83;67.63;;;6.00;99.90;;;;;;5031667;28;20202;-90
2021/11/16 06:28:46;;;;;;;109.45;64.60;;;6.10;99.90;;;;;;5031425;28;20189;-89
2021/11/16 06:31:13;;;;;;;111.57;64.07;;;6.10;99.90;;;;;;5049350;28;20185;-90
2021/11/16 06:33:39;;;;;;;108.30;63.50;;;6.10;99.90;;;;;;5051828;28;20193;-89
2021/11/16 06:36:05;;;;;;;113.90;64.87;;;6.10;99.90;;;;;;5028293;28;20626;-90
2021/11/16 06:38:31;;;;;;;109.57;65.82;;;6.20;99.90;;;;;;5013260;28;20412;-90
2021/11/16 06:40:56;;;;;;;115.07;67.63;;;6.20;99.90;;;;;;5041784;28;20166;-90
2021/11/16 06:43:28;;;;;;;106.90;64.50;;;6.30;99.90;;;;;;5054628;28;20177;-89
2021/11/16 06:45:56;;;;;;;116.25;65.80;;;6.30;99.90;;;;;;5054966;28;20209;-91
2021/11/16 06:48:22;;;;;;;117.40;69.65;;;6.30;99.90;;;;;;5039593;28;20190;-90
2021/11/16 06:50:49;;;;;;;114.53;68.15;;;6.40;99.90;;;;;;5030837;28;20220;-90
2021/11/16 06:53:26;;;;;;;105.82;66.88;;;6.40;99.90;;;;;;5052204;28;20206;-92
2021/11/16 06:55:52;;;;;;;106.88;66.35;;;6.50;99.90;;;;;;5029681;28;20193;-91
2021/11/16 06:58:18;;;;;;;115.07;68.60;;;6.50;99.90;;;;;;5020400;28;20657;-89
2021/11/16 07:00:44;;;;;;;116.10;68.30;;;6.60;99.90;;;;;;5029220;28;20185;-90
2021/11/16 07:03:19;;;;;;;109.53;67.18;;;6.70;99.90;;;;;;5039232;28;20206;-90
2021/11/16 07:05:52;;;;;;;120.68;72.55;;;6.70;99.90;;;;;;5061762;28;20170;-91
2021/11/16 07:08:35;;;;;;;109.45;63.03;;;6.80;99.90;;;;;;5045006;28;20190;-92
2021/11/16 07:11:22;;;;;;;111.88;69.32;;;7.00;99.90;;;;;;5045361;28;20182;-91
2021/11/16 07:14:01;;;;;;;112.50;66.22;;;7.10;99.90;;;;;;5028452;28;20196;-89
2021/11/16 07:16:55;;;;;;;107.53;62.65;;;7.30;99.90;;;;;;5045557;28;20185;-89
2021/11/16 07:19:36;;;;;;;105.20;63.80;;;7.40;99.90;;;;;;5014450;28;20230;-92
2021/11/16 07:22:12;;;;;;;112.45;64.57;;;7.70;99.90;;;;;;5037458;28;20209;-89
2021/11/16 07:24:41;;;;;;;110.65;64.38;;;7.90;99.90;;;;;;5025560;28;20214;-91
2021/11/16 07:27:08;;;;;;;119.13;71.28;;;8.20;99.90;;;;;;5038087;28;20200;-91
2021/11/16 07:29:43;;;;;;;113.55;71.00;;;8.50;99.90;;;;;;5039677;28;20266;-89
2021/11/16 07:32:12;;;;;;;80.63;51.50;;;8.90;99.90;;;;;;5059046;28;20233;-90
2021/11/16 07:34:39;;;;;;;74.45;49.33;;;9.20;99.90;;;;;;5057838;28;20181;-91
2021/11/16 07:37:05;;;;;;;76.30;49.22;;;9.50;99.90;;;;;;5058242;28;20197;-91
2021/11/16 07:39:52;;;;;;;67.73;46.80;;;9.90;99.90;;;;;;5054090;28;20177;-89
2021/11/16 07:42:21;;;;;;;66.18;45.05;;;10.50;99.90;;;;;;5071758;28;20194;-91
2021/11/16 07:45:20;;;;;;;68.10;46.65;;;11.10;99.90;;;;;;5062122;28;20221;-89
2021/11/16 07:48:03;;;;;;;64.00;44.40;;;11.80;99.90;;;;;;5014446;28;20233;-93
2021/11/16 07:50:31;;;;;;;58.40;41.95;;;12.40;99.90;;;;;;5036209;28;20651;-88
2021/11/16 07:53:35;;;;;;;53.13;39.83;;;13.10;99.90;;;;;;5055426;28;20198;-89
2021/11/16 07:56:09;;;;;;;52.53;36.88;;;13.90;99.90;;;;;;5052008;28;20200;-90
2021/11/16 07:58:48;;;;;;;54.83;38.30;;;14.60;99.90;;;;;;5030941;28;20235;-89
2021/11/16 08:04:18;;;;;;;55.03;38.67;;;15.70;99.90;;;;;;5051199;28;20844;-92
2021/11/16 08:06:55;;;;;;;47.03;35.30;;;16.20;99.90;;;;;;5026807;28;20510;-92
2021/11/16 08:14:35;;;;;;;41.63;31.80;;;17.80;99.90;;;;;;5047877;28;20423;-90
2021/11/16 08:17:06;;;;;;;46.97;32.33;;;18.20;99.90;;;;;;5031539;28;20477;-91
2021/11/16 08:19:34;;;;;;;44.40;33.27;;;18.70;99.90;;;;;;5029236;28;20463;-89
2021/11/16 08:22:04;;;;;;;39.07;28.40;;;19.10;99.90;;;;;;5054104;28;20427;-90
2021/11/16 08:24:33;;;;;;;36.30;28.33;;;19.30;99.90;;;;;;5037258;28;20503;-90
2021/11/16 08:27:00;;;;;;;32.43;25.97;;;19.40;99.90;;;;;;5037121;28;20447;-91
2021/11/16 08:29:35;;;;;;;36.57;27.70;;;19.10;99.90;;;;;;5029442;28;20432;-92
2021/11/16 08:32:11;;;;;;;29.50;21.63;;;18.60;99.90;;;;;;5026701;28;20441;-93
2021/11/16 08:34:43;;;;;;;28.83;22.93;;;18.20;99.30;;;;;;5021554;28;20509;-92
2021/11/16 08:37:12;;;;;;;30.10;22.90;;;17.70;99.90;;;;;;5031198;28;21549;-89
2021/11/16 08:39:42;;;;;;;31.83;24.13;;;17.20;99.90;;;;;;5039638;28;20489;-90
2021/11/16 08:42:32;;;;;;;26.10;21.23;;;16.90;99.90;;;;;;5020779;28;20460;-89
2021/11/16 08:45:03;;;;;;;24.43;20.53;;;16.60;99.70;;;;;;5018147;28;20448;-92
2021/11/16 08:47:38;;;;;;;29.37;21.40;;;16.30;99.90;;;;;;5027541;28;20425;-91
2021/11/16 08:50:11;;;;;;;24.53;18.90;;;16.30;99.90;;;;;;5030219;28;20447;-91
2021/11/16 08:52:37;;;;;;;23.70;18.50;;;16.20;99.90;;;;;;5032124;28;20820;-93
2021/11/16 08:55:11;;;;;;;21.83;17.57;;;16.10;99.80;;;;;;5049858;28;20465;-91
2021/11/16 08:57:44;;;;;;;25.27;19.63;;;15.90;99.70;;;;;;5039437;28;20467;-91
2021/11/16 09:00:35;;;;;;;26.47;19.23;;;15.80;99.90;;;;;;5032541;28;20495;-90
2021/11/16 09:03:05;;;;;;;23.47;18.77;;;15.80;99.90;;;;;;5033151;28;20454;-91
2021/11/16 09:05:34;;;;;;;25.30;20.20;;;15.80;99.90;;;;;;5017013;28;20482;-91
2021/11/16 09:08:02;;;;;;;26.97;19.53;;;15.70;99.90;;;;;;5026541;28;20749;-91
2021/11/16 09:10:34;;;;;;;21.90;17.93;;;15.70;99.90;;;;;;5015821;28;20513;-92
2021/11/16 09:13:01;;;;;;;25.50;18.70;;;15.60;99.90;;;;;;5029521;28;20862;-89
2021/11/16 09:15:32;;;;;;;28.40;18.63;;;15.60;99.90;;;;;;5016614;28;20432;-91
2021/11/16 09:18:20;;;;;;;21.80;16.70;;;15.70;99.90;;;;;;5027147;28;20457;-93
2021/11/16 09:21:08;;;;;;;21.87;16.70;;;15.70;99.90;;;;;;5015988;28;20516;-93
2021/11/16 09:23:41;;;;;;;21.43;16.63;;;15.50;99.00;;;;;;5037306;28;20448;-92
2021/11/16 09:29:00;;;;;;;23.00;15.30;;;15.20;99.70;;;;;;5041806;28;20431;-90
2021/11/16 09:31:27;;;;;;;21.13;16.33;;;15.30;99.80;;;;;;5029664;28;20453;-93
2021/11/16 09:33:57;;;;;;;21.60;15.87;;;15.40;98.70;;;;;;5051776;28;20795;-91
2021/11/16 09:36:33;;;;;;;18.67;15.70;;;15.40;98.90;;;;;;5035649;28;20800;-91
2021/11/16 09:39:06;;;;;;;18.33;15.17;;;15.40;98.80;;;;;;5036157;28;20393;-92
2021/11/16 09:41:32;;;;;;;20.90;16.20;;;15.30;98.90;;;;;;5043578;28;20438;-89
2021/11/16 09:44:06;;;;;;;19.30;14.70;;;15.40;99.40;;;;;;5058443;28;20500;-89
2021/11/16 09:46:43;;;;;;;23.00;15.93;;;15.50;99.50;;;;;;5031882;28;20205;-91
2021/11/16 09:49:12;;;;;;;19.80;15.60;;;15.60;99.40;;;;;;5013910;28;20427;-91
2021/11/16 09:51:40;;;;;;;22.00;16.00;;;15.80;99.00;;;;;;5046823;28;20458;-91
2021/11/16 09:54:09;;;;;;;22.80;16.40;;;15.70;98.70;;;;;;5051263;28;20403;-91
2021/11/16 09:56:36;;;;;;;19.23;15.70;;;15.60;98.90;;;;;;5038228;28;20498;-92
2021/11/16 09:59:02;;;;;;;19.27;15.17;;;15.50;98.80;;;;;;5022368;28;20518;-89
2021/11/16 10:01:37;;;;;;;19.87;15.33;;;15.30;98.70;;;;;;5044828;28;20938;-91
2021/11/16 10:04:11;;;;;;;19.27;15.13;;;15.10;99.50;;;;;;5027767;28;20471;-92
2021/11/16 10:06:37;;;;;;;16.80;12.43;;;15.00;99.60;;;;;;5042766;28;20439;-90
2021/11/16 10:09:06;;;;;;;18.37;13.13;;;15.00;98.30;;;;;;5035001;28;20426;-91
2021/11/16 10:11:33;;;;;;;15.57;12.20;;;14.80;98.10;;;;;;5040838;28;20462;-90
2021/11/16 10:13:59;;;;;;;16.60;12.40;;;14.70;97.80;;;;;;5036062;28;20423;-91
2021/11/16 10:16:25;;;;;;;17.57;12.97;;;14.50;97.90;;;;;;5045601;28;20496;-93
2021/11/16 10:18:51;;;;;;;15.87;12.90;;;14.30;97.90;;;;;;5031788;28;20465;-91
2021/11/16 10:21:18;;;;;;;17.40;12.33;;;14.20;98.30;;;;;;5008228;28;20273;-92
2021/11/16 10:23:47;;;;;;;19.50;13.47;;;14.10;98.30;;;;;;5030135;28;20226;-90
2021/11/16 10:26:14;;;;;;;17.63;14.23;;;14.10;98.20;;;;;;5004054;28;20969;-91
2021/11/16 10:28:43;;;;;;;20.57;13.20;;;14.00;98.40;;;;;;5035873;28;20975;-91
2021/11/16 10:31:11;;;;;;;19.53;14.87;;;14.00;98.60;;;;;;5021193;28;20504;-93
2021/11/16 10:33:40;;;;;;;17.20;12.83;;;14.00;98.60;;;;;;5002560;28;20820;-89
2021/11/16 10:36:10;;;;;;;18.50;12.80;;;13.90;98.50;;;;;;5001050;28;20428;-92
2021/11/16 10:38:39;;;;;;;17.27;13.63;;;13.80;98.70;;;;;;5003012;28;20487;-92
2021/11/16 10:41:08;;;;;;;17.73;12.47;;;13.70;98.80;;;;;;5007920;28;20525;-93
2021/11/16 10:43:44;;;;;;;21.17;14.47;;;13.60;98.50;;;;;;5007327;28;21239;-92
2021/11/16 10:46:11;;;;;;;17.23;12.17;;;13.50;99.20;;;;;;5015221;28;20515;-90
2021/11/16 10:48:39;;;;;;;17.63;12.73;;;13.40;98.90;;;;;;5013356;28;20422;-90
2021/11/16 10:51:12;;;;;;;17.10;13.93;;;13.40;99.50;;;;;;5010420;28;20451;-92
2021/11/16 10:53:38;;;;;;;19.70;12.83;;;13.40;99.90;;;;;;5011325;28;20436;-91
2021/11/16 10:56:08;;;;;;;19.90;15.40;;;13.40;99.90;;;;;;5017587;28;20462;-92
2021/11/16 10:58:39;;;;;;;17.83;14.73;;;13.50;99.90;;;;;;5009032;28;20428;-92
2021/11/16 11:01:13;;;;;;;20.13;13.70;;;13.40;99.80;;;;;;5009684;28;20439;-93
2021/11/16 11:03:50;;;;;;;18.23;14.03;;;13.30;99.90;;;;;;5009725;28;20431;-90
2021/11/16 11:06:19;;;;;;;18.00;13.10;;;13.40;99.90;;;;;;5016712;28;20948;-91
2021/11/16 11:08:58;;;;;;;16.70;13.37;;;13.40;99.90;;;;;;5012783;28;20924;-92
2021/11/16 11:11:42;;;;;;;17.67;13.50;;;13.50;99.90;;;;;;5022460;28;20459;-90
2021/11/16 11:14:17;;;;;;;17.37;12.17;;;13.50;99.90;;;;;;5009656;28;20493;-90
2021/11/16 11:17:04;;;;;;;17.47;13.03;;;13.50;99.90;;;;;;5009789;28;20478;-91
2021/11/16 11:19:35;;;;;;;16.00;12.20;;;13.60;99.90;;;;;;5024373;28;20439;-92
2021/11/16 11:28:19;;;;;;;19.20;12.67;;;13.60;99.90;;;;;;5043238;28;20519;-91
2021/11/16 11:30:24;;;;;;;17.73;11.83;;;13.70;99.90;;;;;;5014414;28;20460;-90
2021/11/16 11:32:52;;;;;;;14.13;11.23;;;13.70;99.90;;;;;;5021198;28;20518;-90
2021/11/16 11:35:21;;;;;;;16.10;11.80;;;13.80;99.90;;;;;;5029892;28;20797;-89
2021/11/16 11:37:50;;;;;;;15.47;11.80;;;13.90;99.90;;;;;;5029669;28;20467;-92
2021/11/16 11:40:19;;;;;;;21.83;14.10;;;13.90;99.90;;;;;;5027280;28;20473;-93
2021/11/16 11:42:44;;;;;;;19.50;14.20;;;14.00;99.90;;;;;;5035913;28;20451;-92
2021/11/16 11:45:24;;;;;;;18.40;13.67;;;14.10;99.90;;;;;;5030586;28;20486;-92
2021/11/16 11:47:53;;;;;;;14.53;12.20;;;14.10;99.90;;;;;;5029318;28;20202;-90
2021/11/16 11:51:05;;;;;;;18.43;13.03;;;14.10;99.90;;;;;;5022087;28;20424;-92
2021/11/16 11:53:33;;;;;;;17.50;11.97;;;14.00;99.90;;;;;;5013075;28;20428;-89
2021/11/16 11:56:04;;;;;;;12.57;11.10;;;13.90;99.90;;;;;;5020781;28;20522;-91
2021/11/16 11:58:34;;;;;;;14.53;11.83;;;13.90;99.90;;;;;;5019248;28;20412;-90
2021/11/16 12:01:06;;;;;;;14.00;10.73;;;13.80;99.90;;;;;;5028916;28;20807;-90
2021/11/16 12:03:33;;;;;;;15.00;11.20;;;13.80;99.90;;;;;;5017408;28;20462;-92
2021/11/16 12:05:59;;;;;;;16.00;12.27;;;13.80;99.90;;;;;;5023619;28;20471;-92
2021/11/16 12:08:25;;;;;;;14.63;12.80;;;13.90;99.90;;;;;;5018680;28;20479;-92
2021/11/16 12:10:52;;;;;;;13.67;11.00;;;13.90;99.90;;;;;;5018141;28;20475;-92
2021/11/16 12:13:23;;;;;;;13.33;10.77;;;13.90;99.90;;;;;;5023227;28;20179;-93
2021/11/16 12:16:00;;;;;;;14.47;11.83;;;14.00;99.90;;;;;;5027807;28;20434;-92
2021/11/16 12:18:41;;;;;;;14.00;11.20;;;14.00;99.90;;;;;;5014155;28;20511;-93
2021/11/16 12:21:26;;;;;;;15.90;11.73;;;14.00;99.90;;;;;;4998052;28;20447;-91
2021/11/16 12:23:58;;;;;;;19.40;12.20;;;14.00;99.90;;;;;;5013655;28;20483;-91
2021/11/16 12:26:26;;;;;;;18.07;13.90;;;14.00;99.90;;;;;;5027767;28;20452;-92
2021/11/16 12:28:52;;;;;;;20.40;13.30;;;14.10;99.90;;;;;;5013537;28;20420;-93
2021/11/16 12:31:25;;;;;;;21.83;13.80;;;14.10;99.90;;;;;;5005271;28;20456;-93
2021/11/16 12:33:52;;;;;;;15.97;13.03;;;14.10;99.90;;;;;;5017761;28;20159;-90
2021/11/16 12:36:42;;;;;;;15.70;13.03;;;14.10;99.90;;;;;;5010232;28;20475;-90
2021/11/16 12:39:14;;;;;;;16.33;12.90;;;14.00;99.90;;;;;;5008904;28;20431;-91
2021/11/16 12:41:51;;;;;;;14.43;11.23;;;13.90;99.90;;;;;;5001457;28;20476;-94
2021/11/16 12:44:30;;;;;;;16.17;12.57;;;13.80;99.90;;;;;;5012471;28;20892;-92
2021/11/16 12:47:05;;;;;;;15.07;12.30;;;13.60;99.90;;;;;;5019358;28;20975;-90
2021/11/16 12:49:35;;;;;;;16.97;11.77;;;13.60;99.90;;;;;;5009052;28;20415;-91
2021/11/16 12:52:05;;;;;;;16.30;12.40;;;13.50;99.90;;;;;;5009996;28;20554;-93
2021/11/16 12:54:34;;;;;;;16.50;12.93;;;13.50;99.90;;;;;;5025093;28;20419;-92
2021/11/16 12:57:00;;;;;;;19.10;13.63;;;13.40;99.90;;;;;;5013036;28;20486;-90
2021/11/16 12:59:32;;;;;;;15.00;11.90;;;13.40;99.90;;;;;;5024519;28;20822;-90
2021/11/16 13:02:04;;;;;;;15.63;12.67;;;13.40;99.90;;;;;;5009997;28;20471;-92
2021/11/16 13:04:50;;;;;;;18.43;12.40;;;13.40;99.90;;;;;;5005878;28;20468;-93